Terminal Aerodrome Forecast
Issued by NWS

Home | Current Version | Previous Version | Text Only | Print | Product List | Glossary On
Versions: 1 2 3 4 5 6 7 8 9 10 11 12 13 14
000
FTUS43 KPAH 260117 AAB
TAFCGI
TAF AMD
KCGI 260117Z 2601/2624 34009KT P6SM FEW020 BKN090
     FM260300 33008KT P6SM OVC010
     FM261800 02008KT P6SM BKN025=

USA.gov is the U.S. government's official web portal to all federal, state and local government web resources and services.